Flight Track Log - Related Links

Times and Time Zones

All times are in EDT time to prevent confusion due to time zone crossing. See the GJS6221 flight status page for this flight to view local times or setup timezone preferences in your user account.

Time Position Orientation Groundspeed Altitude Reporting Facility
EDT Latitude Longitude Course Direction KTS MPH feet Rate Location/Type
Wed 07:16:13 AM 45.4500 -73.7500 207° Southwest 110 127 900  Level Montreal Center
Wed 07:17:13 AM 45.4167 -73.7667 199° South 190 219 2,800 2,000 Climbing Montreal Center
Wed 07:18:13 AM 45.3500 -73.8167 208° Southwest 250 288 4,900 2,600 Climbing Montreal Center
Wed 07:19:13 AM 45.2833 -73.8500 199° South 250 288 8,000 2,700 Climbing Montreal Center
Wed 07:20:13 AM 45.2000 -73.9000 203° Southwest 280 322 10,300 1,850 Climbing Montreal Center
Wed 07:21:00 AM 44.9866 -74.0810 207° Southwest  Level FlightAware Approximate
Wed 07:21:13 AM 45.1167 -73.9000 180° South 320 368 11,700  Level Montreal Center
Wed 07:22:13 AM 45.0333 -73.9000 180° South 340 391 14,000 2,150 Climbing Montreal Center
Wed 07:23:13 AM 44.9333 -73.9167 187° South 360 414 16,000 1,900 Climbing Montreal Center
Wed 07:24:13 AM 44.8333 -73.8833 167° South 370 426 17,800 1,750 Climbing Montreal Center
Wed 07:25:13 AM 44.7167 -73.9000 186° South 380 437 19,500 1,650 Climbing Montreal Center
Wed 07:26:13 AM 44.6167 -73.8833 173° South 390 449 21,100 1,500 Climbing Montreal Center
Wed 07:27:13 AM 44.5000 -73.8833 180° South 400 460 22,500 1,350 Climbing Montreal Center
Wed 07:28:13 AM 44.4000 -73.8833 180° South 420 483 23,800 1,300 Climbing Montreal Center
Wed 07:29:13 AM 44.2667 -73.8667 175° South 430 495 25,100 1,250 Climbing Montreal Center
Wed 07:30:13 AM 44.1500 -73.8667 180° South 430 495 26,300 1,100 Climbing Montreal Center
Wed 07:31:13 AM 44.0333 -73.8500 174° South 440 506 27,300 1,000 Climbing Montreal Center
Wed 07:32:13 AM 43.9167 -73.8500 180° South 440 506 28,300 1,050 Climbing Montreal Center
Wed 07:33:13 AM 43.7833 -73.8333 175° South 450 518 29,400 1,000 Climbing Montreal Center
Wed 07:34:13 AM 43.6500 -73.8500 185° South 450 518 30,300 1,000 Climbing Montreal Center
Wed 07:35:13 AM 43.5333 -73.8333 174° South 450 518 31,400 867 Climbing Montreal Center
Wed 07:35:43 AM 43.5172 -73.8458 209° Southwest 455 524 31,600 200 Climbing Boston Center
Wed 07:36:43 AM 43.3464 -73.8333 177° South 460 529 31,700 -950 Climbing Boston Center
Wed 07:37:43 AM 43.2131 -73.8275 178° South 471 542 29,700 -1,983 Descending Boston Center
Wed 07:38:44 AM 43.0839 -73.8217 178° South 476 548 27,700 -1,916 Descending Boston Center
Wed 07:39:42 AM 42.9631 -73.8161 178° South 458 527 25,900 -1,627 Descending Boston Center
Wed 07:40:42 AM 42.8464 -73.8106 178° South 438 504 24,500 -1,220 Descending Boston Center
Wed 07:41:45 AM 42.7319 -73.7997 176° South 425 489 23,400 -1,050 Descending Boston Center
Wed 07:42:42 AM 42.6156 -73.7717 170° South 418 481 22,400 -950 Descending Boston Center
Wed 07:43:45 AM 42.5097 -73.7383 167° South 412 474 21,500 -950 Descending Boston Center
Wed 07:44:42 AM 42.4119 -73.7083 167° South 407 468 20,500 -1,017 Descending Boston Center
Wed 07:45:43 AM 42.3019 -73.6753 167° South 397 457 19,500 -984 Descending Boston Center
Wed 07:46:44 AM 42.2058 -73.6872 185° South 384 442 18,500 -756 Descending Boston Center
Wed 07:47:42 AM 42.1036 -73.6992 185° South 377 434 18,000 -252 Descending Boston Center
Wed 07:48:43 AM 41.9911 -73.7139 186° South 377 434 18,000  Level Boston Center
Wed 07:49:43 AM 41.8886 -73.7256 185° South 368 423 18,000 -50 Level Boston Center
Wed 07:50:44 AM 41.7864 -73.7403 186° South 368 423 17,900 -1,041 Descending Boston Center
Wed 07:51:44 AM 41.6861 -73.7550 186° South 368 423 15,900 -2,350 Descending Boston Center
Wed 07:53:07 AM 41.5500 -73.7667 184° South 342 394 12,300 -2,266 Descending New York TRACON
Wed 07:54:07 AM 41.4500 -73.7833 187° South 323 372 10,500 -1,368 Descending New York TRACON
Wed 07:55:01 AM 41.3833 -73.7833 180° South 280 322 9,700 -1,211 Descending New York TRACON
Wed 07:56:01 AM 41.3167 -73.7667 169° South 278 320 8,200 -1,500 Descending New York TRACON
Wed 07:57:01 AM 41.2500 -73.7167 151° Southeast 274 315 6,700 -1,300 Descending New York TRACON
Wed 07:58:01 AM 41.2000 -73.6667 143° Southeast 269 310 5,600 -1,105 Descending New York TRACON
Wed 07:58:55 AM 41.1333 -73.6500 169° South 254 292 4,600 -889 Descending New York TRACON
Wed 07:59:49 AM 41.0667 -73.6833 201° Southwest 254 292 4,000 -300 Descending New York TRACON
Wed 08:00:55 AM 41.0000 -73.7167 201° Southwest 252 290 4,000 -190 Level New York TRACON
Wed 08:01:55 AM 40.9333 -73.7500 201° Southwest 231 266 3,600 -800 Descending New York TRACON
Wed 08:02:55 AM 40.8833 -73.7833 207° Southwest 197 227 2,400 -1,048 Descending New York TRACON
Wed 08:04:01 AM 40.8500 -73.8167 217° Southwest 148 170 1,400 -800 Descending New York TRACON
Wed 08:04:55 AM 40.8167 -73.8500 217° Southwest 134 154 800 -667 Descending New York TRACON

Login

Don't have an account? Register now (free) for customized features, flight alerts, and more!